createdAt,value
2022-12-25T00:00:21.004Z,97956.53
2022-12-25T00:02:53.230Z,97962.91
2022-12-25T00:05:24.430Z,97963.56
2022-12-25T00:07:54.843Z,97964.34
2022-12-25T00:10:24.764Z,97960.75
2022-12-25T00:12:54.983Z,97970.91
2022-12-25T00:15:24.989Z,97985.25
2022-12-25T00:17:56.355Z,97979.06
2022-12-25T00:20:27.456Z,98000.66
2022-12-25T00:22:57.782Z,97991.41
2022-12-25T00:25:27.582Z,97986.81
2022-12-25T00:27:57.922Z,97983.97
2022-12-25T00:30:28.094Z,97981.03
2022-12-25T00:32:59.688Z,97980.44
2022-12-25T00:35:29.629Z,97981.88
2022-12-25T00:37:59.398Z,97996.28
2022-12-25T00:40:29.323Z,97990.41
2022-12-25T00:42:59.428Z,98002.34
2022-12-25T00:45:29.516Z,98001.28
2022-12-25T00:48:01.162Z,97999.75
2022-12-25T00:50:31.033Z,98002.84
2022-12-25T00:53:00.904Z,98012.59
2022-12-25T00:55:32.525Z,98010.41
2022-12-25T00:58:02.981Z,98013.69
2022-12-25T01:00:33.238Z,98017.00
2022-12-25T01:03:05.310Z,98016.41
2022-12-25T01:05:36.135Z,98024.25
2022-12-25T01:08:07.087Z,98018.63
2022-12-25T01:10:36.481Z,98013.50
2022-12-25T01:13:06.847Z,98008.75
2022-12-25T01:15:37.251Z,98010.28
2022-12-25T01:18:11.586Z,98011.22
2022-12-25T01:20:42.968Z,98020.44
2022-12-25T01:23:13.576Z,98023.25
2022-12-25T01:25:43.980Z,98021.94
2022-12-25T01:28:13.860Z,98034.19
2022-12-25T01:30:50.784Z,98022.56
2022-12-25T01:33:22.462Z,98028.06
2022-12-25T01:35:52.678Z,98028.22
2022-12-25T01:38:23.238Z,98032.63
2022-12-25T01:40:53.393Z,98029.31
2022-12-25T01:43:27.149Z,98026.72
2022-12-25T01:45:57.904Z,98031.19
2022-12-25T01:48:32.051Z,98023.81
2022-12-25T01:51:05.862Z,98016.09
2022-12-25T01:53:36.527Z,98014.56
2022-12-25T01:56:08.740Z,98005.41
2022-12-25T01:58:39.368Z,97987.50
2022-12-25T02:01:09.724Z,97993.31
2022-12-25T02:03:44.012Z,97999.38
2022-12-25T02:06:14.037Z,98002.75
2022-12-25T02:08:45.393Z,98002.28
2022-12-25T02:11:35.567Z,98010.66
2022-12-25T02:14:06.186Z,98024.25
2022-12-25T02:16:57.266Z,98032.28
2022-12-25T02:19:54.027Z,98030.56
2022-12-25T02:22:30.601Z,98033.09
2022-12-25T02:25:08.456Z,98025.44
2022-12-25T02:28:12.032Z,98028.97
2022-12-25T02:30:47.132Z,98039.16
2022-12-25T02:33:35.593Z,98043.56
2022-12-25T02:36:09.323Z,98043.59
2022-12-25T02:39:02.181Z,98039.72
2022-12-25T02:41:32.974Z,98031.31
2022-12-25T02:44:25.266Z,98025.63
2022-12-25T02:47:13.372Z,98031.50
2022-12-25T02:50:01.669Z,98024.66
2022-12-25T02:52:49.997Z,98030.56
2022-12-25T02:55:40.207Z,98017.69
2022-12-25T02:58:31.909Z,98024.75
2022-12-25T03:01:23.391Z,98021.16
2022-12-25T03:04:13.263Z,98020.13
2022-12-25T03:06:47.371Z,98019.16
2022-12-25T03:09:39.017Z,98012.28
2022-12-25T03:12:15.214Z,98008.00
2022-12-25T03:15:03.504Z,98013.84
2022-12-25T03:17:35.944Z,98016.13
2022-12-25T03:20:24.624Z,98008.84
2022-12-25T03:23:09.629Z,98007.63
2022-12-25T03:25:57.377Z,97998.59
2022-12-25T03:28:29.311Z,97991.38
2022-12-25T03:31:11.703Z,97984.16
2022-12-25T03:34:27.855Z,97980.84
2022-12-25T03:37:29.443Z,97986.47
2022-12-25T03:40:22.562Z,97976.91
2022-12-25T03:43:13.884Z,97983.44
2022-12-25T03:46:07.221Z,97981.91
2022-12-25T03:48:56.334Z,97997.31
2022-12-25T03:51:49.676Z,98004.16
2022-12-25T03:54:40.411Z,98008.47
2022-12-25T03:57:28.061Z,98009.03
2022-12-25T04:00:15.954Z,98011.22
2022-12-25T04:03:03.343Z,97997.00
2022-12-25T04:06:06.045Z,98002.63
2022-12-25T04:08:54.275Z,98016.78
2022-12-25T04:11:41.467Z,98012.56
2022-12-25T04:14:28.213Z,98010.06
2022-12-25T04:17:15.634Z,98006.94
2022-12-25T04:20:02.672Z,98025.69
2022-12-25T04:22:49.165Z,98025.81
2022-12-25T04:25:38.405Z,98031.06
2022-12-25T04:28:25.711Z,98031.28
2022-12-25T04:31:13.636Z,98037.53
2022-12-25T04:34:01.027Z,98020.72
2022-12-25T04:36:31.046Z,98022.28
2022-12-25T04:39:01.102Z,98024.78
2022-12-25T04:41:33.844Z,98019.00
2022-12-25T04:44:04.230Z,98023.22
2022-12-25T04:46:34.042Z,98021.69
2022-12-25T04:49:03.811Z,98012.59
2022-12-25T04:51:34.015Z,98021.69
2022-12-25T04:54:03.720Z,98023.50
2022-12-25T04:56:41.701Z,98027.66
2022-12-25T04:59:16.081Z,98029.59
2022-12-25T05:01:45.940Z,98032.09
2022-12-25T05:04:15.780Z,98036.56
2022-12-25T05:06:46.165Z,98025.81
2022-12-25T05:09:16.651Z,98020.91
2022-12-25T05:11:48.373Z,98017.09
2022-12-25T05:14:18.826Z,98025.63
2022-12-25T05:16:49.357Z,98028.69
2022-12-25T05:19:19.520Z,98029.47
2022-12-25T05:21:49.868Z,98025.56
2022-12-25T05:24:19.390Z,98021.06
2022-12-25T05:26:50.902Z,98024.03
2022-12-25T05:29:20.850Z,98020.28
2022-12-25T05:31:51.110Z,98020.78
2022-12-25T05:34:22.165Z,98015.72
2022-12-25T05:36:52.355Z,98021.13
2022-12-25T05:39:23.142Z,98008.44
2022-12-25T05:41:54.646Z,98015.72
2022-12-25T05:44:25.416Z,98013.88
2022-12-25T05:46:55.583Z,98016.97
2022-12-25T05:49:26.418Z,98016.81
2022-12-25T05:51:58.001Z,98014.13
2022-12-25T05:54:28.033Z,98023.34
2022-12-25T05:56:59.199Z,98029.13
2022-12-25T05:59:32.578Z,98036.88
2022-12-25T06:02:03.306Z,98047.09
2022-12-25T06:04:33.729Z,98053.84
2022-12-25T06:07:04.676Z,98048.81
2022-12-25T06:09:35.560Z,98047.88
2022-12-25T06:12:06.969Z,98047.91
2022-12-25T06:14:37.596Z,98041.41
2022-12-25T06:17:07.630Z,98050.06
2022-12-25T06:19:38.081Z,98043.66
2022-12-25T06:22:08.004Z,98043.03
2022-12-25T06:24:39.155Z,98050.06
2022-12-25T06:27:13.446Z,98049.78
2022-12-25T06:29:43.900Z,98050.97
2022-12-25T06:32:14.313Z,98046.78
2022-12-25T06:34:44.905Z,98057.25
2022-12-25T06:37:15.422Z,98057.56
2022-12-25T06:39:45.440Z,98058.28
2022-12-25T06:42:16.354Z,98053.66
2022-12-25T06:44:46.236Z,98057.19
2022-12-25T06:47:16.309Z,98075.47
2022-12-25T06:49:47.009Z,98083.69
2022-12-25T06:52:17.883Z,98079.19
2022-12-25T06:54:49.581Z,98085.16
2022-12-25T06:57:21.083Z,98080.44
2022-12-25T06:59:55.144Z,98067.78
2022-12-25T07:02:26.409Z,98080.34
2022-12-25T07:04:57.198Z,98075.91
2022-12-25T07:07:27.143Z,98072.75
2022-12-25T07:09:57.224Z,98077.69
2022-12-25T07:12:28.944Z,98075.00
2022-12-25T07:14:59.646Z,98079.31
2022-12-25T07:17:29.934Z,98080.97
2022-12-25T07:20:00.173Z,98081.31
2022-12-25T07:22:32.059Z,98081.19
2022-12-25T07:25:02.845Z,98082.28
2022-12-25T07:27:35.268Z,98080.38
2022-12-25T07:30:06.073Z,98086.41
2022-12-25T07:32:35.808Z,98106.09
2022-12-25T07:35:06.456Z,98099.72
2022-12-25T07:37:36.475Z,98108.56
2022-12-25T07:40:11.015Z,98108.09
2022-12-25T07:42:42.853Z,98105.72
2022-12-25T07:45:13.458Z,98101.72
2022-12-25T07:47:43.125Z,98114.53
2022-12-25T07:50:13.670Z,98117.25
2022-12-25T07:52:44.082Z,98117.38
2022-12-25T07:55:14.478Z,98122.06
2022-12-25T07:57:46.519Z,98124.66
2022-12-25T08:00:20.254Z,98129.00
2022-12-25T08:02:52.596Z,98121.59
2022-12-25T08:05:23.180Z,98123.16
2022-12-25T08:07:57.714Z,98129.97
2022-12-25T08:10:28.510Z,98117.34
2022-12-25T08:13:00.010Z,98136.66
2022-12-25T08:15:30.198Z,98132.72
2022-12-25T08:18:04.158Z,98132.94
2022-12-25T08:20:35.108Z,98128.22
2022-12-25T08:23:05.268Z,98135.69
2022-12-25T08:25:35.878Z,98129.63
2022-12-25T08:28:07.087Z,98123.91
2022-12-25T08:30:37.586Z,98122.59
2022-12-25T08:33:07.582Z,98126.28
2022-12-25T08:35:37.449Z,98128.59
2022-12-25T08:38:07.363Z,98124.88
2022-12-25T08:40:37.430Z,98124.59
2022-12-25T08:43:09.619Z,98130.06
2022-12-25T08:45:39.543Z,98119.09
2022-12-25T08:48:09.424Z,98131.09
2022-12-25T08:50:40.225Z,98135.56
2022-12-25T08:53:10.356Z,98141.25
2022-12-25T08:55:40.960Z,98142.84
2022-12-25T08:58:14.834Z,98151.44
2022-12-25T09:00:44.437Z,98141.47
2022-12-25T09:03:14.366Z,98135.28
2022-12-25T09:05:45.095Z,98131.66
2022-12-25T09:08:15.146Z,98133.41
2022-12-25T09:10:45.633Z,98138.28
2022-12-25T09:13:18.038Z,98141.84
2022-12-25T09:15:49.097Z,98136.59
2022-12-25T09:18:19.759Z,98140.50
2022-12-25T09:20:49.931Z,98138.88
2022-12-25T09:23:19.961Z,98135.22
2022-12-25T09:25:50.000Z,98144.25
2022-12-25T09:28:21.679Z,98140.88
2022-12-25T09:30:53.086Z,98137.88
2022-12-25T09:33:23.693Z,98139.47
2022-12-25T09:35:57.214Z,98140.09
2022-12-25T09:38:27.782Z,98137.19
2022-12-25T09:41:03.294Z,98135.03
2022-12-25T09:43:39.788Z,98138.16
2022-12-25T09:46:15.338Z,98133.25
2022-12-25T09:48:50.230Z,98135.19
2022-12-25T09:51:21.789Z,98134.19
2022-12-25T09:53:56.213Z,98135.38
2022-12-25T09:56:27.512Z,98126.72
2022-12-25T09:58:58.840Z,98136.91
2022-12-25T10:01:33.996Z,98127.41
2022-12-25T10:04:21.089Z,98123.00
2022-12-25T10:07:02.908Z,98120.22
2022-12-25T10:09:48.207Z,98111.44
2022-12-25T10:12:31.793Z,98109.00
2022-12-25T10:15:14.187Z,98100.66
2022-12-25T10:17:56.769Z,98090.41
2022-12-25T10:20:36.294Z,98098.75
2022-12-25T10:23:07.716Z,98098.91
2022-12-25T10:25:41.541Z,98095.56
2022-12-25T10:28:15.704Z,98090.84
2022-12-25T10:30:47.631Z,98072.41
2022-12-25T10:33:22.024Z,98077.13
2022-12-25T10:35:52.249Z,98068.44
2022-12-25T10:38:22.255Z,98067.44
2022-12-25T10:41:02.740Z,98066.63
2022-12-25T10:43:37.902Z,98064.34
2022-12-25T10:46:14.253Z,98060.25
2022-12-25T10:48:46.034Z,98053.16
2022-12-25T10:51:16.017Z,98053.16
2022-12-25T10:53:46.531Z,98043.88
2022-12-25T10:56:19.103Z,98047.31
2022-12-25T10:58:50.150Z,98051.16
2022-12-25T11:01:22.064Z,98054.78
2022-12-25T11:03:54.699Z,98054.88
2022-12-25T11:06:26.356Z,98052.56
2022-12-25T11:08:58.528Z,98054.88
2022-12-25T11:11:30.331Z,98045.59
2022-12-25T11:14:02.131Z,98041.75
2022-12-25T11:16:36.363Z,98040.75
2022-12-25T11:19:07.429Z,98040.88
2022-12-25T11:21:40.951Z,98045.16
2022-12-25T11:24:22.046Z,98033.88
2022-12-25T11:26:53.964Z,98029.91
2022-12-25T11:29:28.108Z,98038.25
2022-12-25T11:32:01.904Z,98026.25
2022-12-25T11:34:34.313Z,98030.81
2022-12-25T11:37:05.435Z,98026.91
2022-12-25T11:39:37.348Z,98020.72
2022-12-25T11:42:12.198Z,98021.91
2022-12-25T11:44:47.449Z,98013.28
2022-12-25T11:47:23.610Z,98012.94
2022-12-25T11:50:00.738Z,98008.31
2022-12-25T11:52:35.850Z,98014.19
2022-12-25T11:55:09.599Z,98012.81
2022-12-25T11:57:40.759Z,98012.22
2022-12-25T12:00:13.177Z,98011.50
2022-12-25T12:02:49.828Z,98003.78
2022-12-25T12:05:24.352Z,98002.19
2022-12-25T12:07:59.812Z,98007.63
2022-12-25T12:10:36.491Z,98009.88
2022-12-25T12:13:20.854Z,98000.59
2022-12-25T12:15:52.154Z,97996.38
2022-12-25T12:18:29.927Z,97986.69
2022-12-25T12:21:02.069Z,97972.41
2022-12-25T12:23:33.924Z,97974.34
2022-12-25T12:26:04.928Z,97975.09
2022-12-25T12:28:46.436Z,97983.66
2022-12-25T12:31:16.727Z,97990.19
2022-12-25T12:33:55.236Z,98001.34
2022-12-25T12:36:35.565Z,97977.22
2022-12-25T12:39:07.678Z,97981.28
2022-12-25T12:41:47.485Z,97975.81
2022-12-25T12:44:19.063Z,97975.50
2022-12-25T12:46:57.179Z,97977.38
2022-12-25T12:49:29.317Z,97979.34
2022-12-25T12:52:07.137Z,97974.97
2022-12-25T12:54:53.998Z,97978.03
2022-12-25T12:57:29.058Z,97977.97
2022-12-25T13:00:04.703Z,97970.19
2022-12-25T13:03:15.312Z,97976.53
2022-12-25T13:05:48.646Z,97982.72
2022-12-25T13:08:31.235Z,97978.50
2022-12-25T13:11:09.492Z,97975.41
2022-12-25T13:13:42.655Z,97977.75
2022-12-25T13:16:21.495Z,97971.16
2022-12-25T13:18:53.249Z,97970.06
2022-12-25T13:21:26.893Z,97968.88
2022-12-25T13:24:02.075Z,97961.50
2022-12-25T13:26:32.521Z,97959.59
2022-12-25T13:29:07.824Z,97962.97
2022-12-25T13:31:43.657Z,97957.16
2022-12-25T13:34:26.413Z,97971.16
2022-12-25T13:36:58.700Z,97973.88
2022-12-25T13:39:29.367Z,97971.59
2022-12-25T13:42:10.273Z,97970.84
2022-12-25T13:44:46.387Z,97963.16
2022-12-25T13:47:23.116Z,97970.47
2022-12-25T13:49:56.014Z,97973.94
2022-12-25T13:52:34.427Z,97983.53
2022-12-25T13:55:06.835Z,97985.16
2022-12-25T13:57:39.229Z,97995.94
2022-12-25T14:00:18.155Z,97995.66
2022-12-25T14:02:48.786Z,97991.41
2022-12-25T14:05:27.483Z,97986.75
2022-12-25T14:08:00.792Z,97972.44
2022-12-25T14:10:32.523Z,97972.41
2022-12-25T14:13:04.066Z,97971.31
2022-12-25T14:15:36.794Z,97979.81
2022-12-25T14:18:06.835Z,97971.72
2022-12-25T14:20:41.114Z,97972.13
2022-12-25T14:23:14.738Z,97973.72
2022-12-25T14:25:46.985Z,97972.97
2022-12-25T14:28:20.730Z,97964.84
2022-12-25T14:30:51.036Z,97963.69
2022-12-25T14:33:23.805Z,97965.59
2022-12-25T14:35:55.068Z,97977.59
2022-12-25T14:38:29.453Z,97969.47
2022-12-25T14:41:03.304Z,97971.41
2022-12-25T14:43:35.150Z,97984.13
2022-12-25T14:46:08.525Z,97984.13
2022-12-25T14:48:38.840Z,97976.03
2022-12-25T14:51:11.291Z,97980.66
2022-12-25T14:53:50.090Z,97980.66
2022-12-25T14:56:22.618Z,97980.66
2022-12-25T14:58:56.561Z,97979.91
2022-12-25T15:01:31.348Z,97982.59
2022-12-25T15:04:09.733Z,97991.00
2022-12-25T15:06:42.622Z,97992.50
2022-12-25T15:09:19.241Z,97980.44
2022-12-25T15:11:50.587Z,97975.38
2022-12-25T15:14:20.735Z,97985.03
2022-12-25T15:16:52.095Z,97978.09
2022-12-25T15:19:26.639Z,97978.81
2022-12-25T15:22:00.136Z,97980.28
2022-12-25T15:24:31.749Z,97967.94
2022-12-25T15:27:02.179Z,97972.06
2022-12-25T15:30:07.970Z,97969.81
2022-12-25T15:32:24.847Z,97971.59
2022-12-25T15:34:54.699Z,97981.66
2022-12-25T15:37:24.956Z,97987.13
2022-12-25T15:39:57.639Z,97985.09
2022-12-25T15:42:28.528Z,97979.63
2022-12-25T15:44:58.151Z,97979.97
2022-12-25T15:47:28.156Z,97978.13
2022-12-25T15:49:58.357Z,97987.66
2022-12-25T15:52:28.969Z,97977.22
2022-12-25T15:55:01.186Z,97979.69
2022-12-25T15:57:34.044Z,97975.31
2022-12-25T16:00:04.676Z,97981.63
2022-12-25T16:02:35.312Z,97988.38
2022-12-25T16:05:10.343Z,97989.75
2022-12-25T16:07:42.428Z,97986.09
2022-12-25T16:10:18.394Z,97986.19
2022-12-25T16:12:48.675Z,97989.16
2022-12-25T16:15:18.849Z,97981.28
2022-12-25T16:17:49.409Z,97975.25
2022-12-25T16:20:19.279Z,97966.41
2022-12-25T16:22:49.465Z,97965.16
2022-12-25T16:25:22.679Z,97969.53
2022-12-25T16:27:52.820Z,97955.78
2022-12-25T16:30:23.541Z,97960.31
2022-12-25T16:32:54.693Z,97958.81
2022-12-25T16:35:24.365Z,97958.63
2022-12-25T16:37:54.736Z,97960.34
2022-12-25T16:40:26.621Z,97952.88
2022-12-25T16:42:58.173Z,97946.69
2022-12-25T16:45:27.769Z,97943.41
2022-12-25T16:47:59.003Z,97948.69
2022-12-25T16:50:29.041Z,97956.84
2022-12-25T16:52:59.636Z,97957.84
2022-12-25T16:55:31.129Z,97953.84
2022-12-25T16:58:01.057Z,97947.34
2022-12-25T17:00:31.285Z,97954.03
2022-12-25T17:03:02.642Z,97955.75
2022-12-25T17:05:34.983Z,97963.31
2022-12-25T17:08:05.024Z,97961.66
2022-12-25T17:10:39.489Z,97967.88
2022-12-25T17:13:09.074Z,97968.13
2022-12-25T17:15:43.916Z,97957.97
2022-12-25T17:18:22.657Z,97945.34
2022-12-25T17:20:53.064Z,97943.22
2022-12-25T17:23:22.960Z,97944.72
2022-12-25T17:25:54.529Z,97948.69
2022-12-25T17:28:25.659Z,97947.16
2022-12-25T17:30:56.307Z,97954.97
2022-12-25T17:33:26.614Z,97955.41
2022-12-25T17:36:03.411Z,97955.03
2022-12-25T17:38:34.660Z,97953.75
2022-12-25T17:41:07.779Z,97957.41
2022-12-25T17:43:40.723Z,97954.06
2022-12-25T17:46:12.970Z,97951.00
2022-12-25T17:48:43.764Z,97966.88
2022-12-25T17:51:16.331Z,97964.63
2022-12-25T17:53:48.982Z,97957.94
2022-12-25T17:56:22.009Z,97965.38
2022-12-25T17:58:53.068Z,97965.22
2022-12-25T18:01:23.988Z,97959.28
2022-12-25T18:03:54.292Z,97957.16
2022-12-25T18:06:28.607Z,97948.44
2022-12-25T18:09:00.554Z,97942.28
2022-12-25T18:11:33.607Z,97937.69
2022-12-25T18:14:08.568Z,97943.16
2022-12-25T18:16:40.638Z,97942.22
2022-12-25T18:19:11.604Z,97942.31
2022-12-25T18:21:42.150Z,97939.06
2022-12-25T18:24:12.603Z,97940.47
2022-12-25T18:26:44.658Z,97951.47
2022-12-25T18:29:14.864Z,97958.81
2022-12-25T18:31:44.989Z,97951.53
2022-12-25T18:34:15.286Z,97951.75
2022-12-25T18:36:45.142Z,97958.41
2022-12-25T18:39:16.404Z,97952.06
2022-12-25T18:42:04.720Z,97945.41
2022-12-25T18:44:34.991Z,97937.75
2022-12-25T18:47:05.140Z,97921.41
2022-12-25T18:49:35.172Z,97923.50
2022-12-25T18:52:49.456Z,97919.63
2022-12-25T18:54:58.587Z,97910.41
2022-12-25T18:57:32.457Z,97912.91
2022-12-25T19:00:03.019Z,97904.47
2022-12-25T19:02:34.024Z,97910.63
2022-12-25T19:05:05.863Z,97906.38
2022-12-25T19:07:35.928Z,97905.50
2022-12-25T19:10:06.906Z,97916.72
2022-12-25T19:12:39.133Z,97905.94
2022-12-25T19:15:10.693Z,97907.88
2022-12-25T19:17:40.832Z,97898.63
2022-12-25T19:20:12.572Z,97892.69
2022-12-25T19:22:42.999Z,97901.84
2022-12-25T19:25:12.807Z,97909.19
2022-12-25T19:27:45.159Z,97912.66
2022-12-25T19:30:15.970Z,97913.84
2022-12-25T19:32:46.068Z,97918.75
2022-12-25T19:35:15.777Z,97919.81
2022-12-25T19:37:45.689Z,97914.66
2022-12-25T19:40:15.906Z,97911.97
2022-12-25T19:42:47.024Z,97907.81
2022-12-25T19:45:17.568Z,97910.63
2022-12-25T19:47:48.575Z,97903.94
2022-12-25T19:50:19.925Z,97907.47
2022-12-25T19:52:51.224Z,97904.84
2022-12-25T19:55:22.505Z,97907.66
2022-12-25T19:57:55.627Z,97900.53
2022-12-25T20:00:25.925Z,97904.31
2022-12-25T20:02:56.911Z,97903.91
2022-12-25T20:05:27.805Z,97910.53
2022-12-25T20:07:58.803Z,97906.75
2022-12-25T20:10:30.353Z,97903.00
2022-12-25T20:13:01.935Z,97900.78
2022-12-25T20:15:32.493Z,97903.19
2022-12-25T20:18:03.030Z,97891.75
2022-12-25T20:20:33.391Z,97879.56
2022-12-25T20:23:04.224Z,97873.16
2022-12-25T20:25:35.145Z,97877.81
2022-12-25T20:28:08.449Z,97884.09
2022-12-25T20:30:41.134Z,97888.88
2022-12-25T20:33:12.103Z,97881.66
2022-12-25T20:35:47.723Z,97878.13
2022-12-25T20:38:18.357Z,97877.91
2022-12-25T20:41:25.269Z,97876.34
2022-12-25T20:43:45.342Z,97886.81
2022-12-25T20:46:16.372Z,97878.00
2022-12-25T20:48:46.830Z,97874.06
2022-12-25T20:51:19.558Z,97877.03
2022-12-25T20:53:51.451Z,97881.53
2022-12-25T20:56:23.824Z,97888.38
2022-12-25T20:58:57.697Z,97887.31
2022-12-25T21:01:29.267Z,97877.56
2022-12-25T21:04:00.428Z,97881.31
2022-12-25T21:06:30.839Z,97869.66
2022-12-25T21:09:01.475Z,97873.13
2022-12-25T21:11:33.204Z,97876.88
2022-12-25T21:14:06.166Z,97867.88
2022-12-25T21:16:36.934Z,97859.44
2022-12-25T21:19:07.195Z,97850.13
2022-12-25T21:21:42.861Z,97852.78
2022-12-25T21:24:12.911Z,97853.69
2022-12-25T21:26:48.000Z,97841.03
2022-12-25T21:29:23.948Z,97844.69
2022-12-25T21:32:12.979Z,97841.75
2022-12-25T21:34:43.544Z,97836.06
2022-12-25T21:37:14.128Z,97839.56
2022-12-25T21:39:45.404Z,97853.06
2022-12-25T21:42:16.449Z,97857.03
2022-12-25T21:44:51.288Z,97854.88
2022-12-25T21:47:20.764Z,97862.63
2022-12-25T21:50:08.471Z,97851.81
2022-12-25T21:52:40.093Z,97860.19
2022-12-25T21:55:10.860Z,97863.50
2022-12-25T21:57:41.863Z,97865.03
2022-12-25T22:00:17.079Z,97864.72
2022-12-25T22:02:50.116Z,97870.69
2022-12-25T22:05:34.189Z,97866.19
2022-12-25T22:08:04.993Z,97845.19
2022-12-25T22:10:38.393Z,97845.28
2022-12-25T22:13:29.418Z,97850.38
2022-12-25T22:16:25.796Z,97852.06
2022-12-25T22:19:14.345Z,97849.50
2022-12-25T22:21:43.738Z,97855.63
2022-12-25T22:24:14.846Z,97866.81
2022-12-25T22:26:46.509Z,97871.09
2022-12-25T22:29:17.589Z,97874.00
2022-12-25T22:31:49.629Z,97871.88
2022-12-25T22:34:20.272Z,97856.41
2022-12-25T22:36:50.420Z,97851.25
2022-12-25T22:39:20.116Z,97842.00
2022-12-25T22:41:49.833Z,97854.47
2022-12-25T22:44:19.721Z,97848.06
2022-12-25T22:46:51.560Z,97845.94
2022-12-25T22:49:21.695Z,97839.34
2022-12-25T22:51:53.523Z,97843.56
2022-12-25T22:54:24.266Z,97839.31
2022-12-25T22:56:55.442Z,97843.56
2022-12-25T22:59:25.869Z,97830.16
2022-12-25T23:01:57.427Z,97822.97
2022-12-25T23:04:27.468Z,97827.03
2022-12-25T23:06:57.924Z,97815.56
2022-12-25T23:09:29.551Z,97810.28
2022-12-25T23:12:01.651Z,97817.03
2022-12-25T23:14:47.633Z,97825.50
2022-12-25T23:17:36.720Z,97821.06
2022-12-25T23:20:25.140Z,97820.72
2022-12-25T23:23:12.944Z,97825.16
2022-12-25T23:26:00.177Z,97831.50
2022-12-25T23:28:47.624Z,97836.84
2022-12-25T23:31:17.717Z,97830.47
2022-12-25T23:33:50.377Z,97835.19
2022-12-25T23:36:20.104Z,97823.44
2022-12-25T23:38:50.131Z,97826.88
2022-12-25T23:41:21.639Z,97826.00
2022-12-25T23:43:51.469Z,97821.94
2022-12-25T23:46:21.823Z,97816.47
2022-12-25T23:48:53.109Z,97827.00
2022-12-25T23:51:23.223Z,97823.50
2022-12-25T23:53:53.257Z,97827.28
2022-12-25T23:56:23.139Z,97820.13
2022-12-25T23:58:53.681Z,97826.44
